sensor_id;sensor_type;location;lat;lon;timestamp;P1;durP1;ratioP1;P2;durP2;ratioP2
15454;SDS011;21057;51.024;7.540;2024-01-27T00:00:57;25.90;;;23.93;;
15454;SDS011;21057;51.024;7.540;2024-01-27T00:03:24;25.23;;;23.40;;
15454;SDS011;21057;51.024;7.540;2024-01-27T00:05:51;25.57;;;23.80;;
15454;SDS011;21057;51.024;7.540;2024-01-27T00:08:18;26.23;;;24.53;;
15454;SDS011;21057;51.024;7.540;2024-01-27T00:10:47;26.50;;;23.80;;
15454;SDS011;21057;51.024;7.540;2024-01-27T00:13:14;26.60;;;24.03;;
15454;SDS011;21057;51.024;7.540;2024-01-27T00:15:41;27.13;;;25.40;;
15454;SDS011;21057;51.024;7.540;2024-01-27T00:18:08;26.40;;;24.80;;
15454;SDS011;21057;51.024;7.540;2024-01-27T00:20:34;27.13;;;25.27;;
15454;SDS011;21057;51.024;7.540;2024-01-27T00:23:02;27.83;;;25.97;;
15454;SDS011;21057;51.024;7.540;2024-01-27T00:25:28;34.47;;;27.23;;
15454;SDS011;21057;51.024;7.540;2024-01-27T00:27:57;28.07;;;25.77;;
15454;SDS011;21057;51.024;7.540;2024-01-27T00:30:23;35.27;;;26.00;;
15454;SDS011;21057;51.024;7.540;2024-01-27T00:32:51;28.70;;;26.77;;
15454;SDS011;21057;51.024;7.540;2024-01-27T00:35:18;28.10;;;25.80;;
15454;SDS011;21057;51.024;7.540;2024-01-27T00:37:45;27.60;;;25.80;;
15454;SDS011;21057;51.024;7.540;2024-01-27T00:40:11;27.87;;;25.77;;
15454;SDS011;21057;51.024;7.540;2024-01-27T00:42:39;28.03;;;26.13;;
15454;SDS011;21057;51.024;7.540;2024-01-27T00:45:08;28.30;;;26.27;;
15454;SDS011;21057;51.024;7.540;2024-01-27T00:47:35;26.43;;;24.80;;
15454;SDS011;21057;51.024;7.540;2024-01-27T00:50:02;28.37;;;26.47;;
15454;SDS011;21057;51.024;7.540;2024-01-27T00:52:30;28.73;;;26.80;;
15454;SDS011;21057;51.024;7.540;2024-01-27T00:54:57;29.87;;;27.50;;
15454;SDS011;21057;51.024;7.540;2024-01-27T00:57:24;28.53;;;26.30;;
15454;SDS011;21057;51.024;7.540;2024-01-27T00:59:51;27.83;;;25.93;;
15454;SDS011;21057;51.024;7.540;2024-01-27T01:02:19;26.63;;;25.00;;
15454;SDS011;21057;51.024;7.540;2024-01-27T01:04:46;28.13;;;26.07;;
15454;SDS011;21057;51.024;7.540;2024-01-27T01:07:13;26.77;;;24.93;;
15454;SDS011;21057;51.024;7.540;2024-01-27T01:09:40;31.03;;;26.13;;
15454;SDS011;21057;51.024;7.540;2024-01-27T01:12:06;28.57;;;26.57;;
15454;SDS011;21057;51.024;7.540;2024-01-27T01:14:34;28.60;;;26.30;;
15454;SDS011;21057;51.024;7.540;2024-01-27T01:17:01;29.10;;;27.00;;
15454;SDS011;21057;51.024;7.540;2024-01-27T01:19:31;29.07;;;26.73;;
15454;SDS011;21057;51.024;7.540;2024-01-27T01:21:58;28.33;;;26.37;;
15454;SDS011;21057;51.024;7.540;2024-01-27T01:24:25;28.10;;;26.30;;
15454;SDS011;21057;51.024;7.540;2024-01-27T01:26:52;29.67;;;26.93;;
15454;SDS011;21057;51.024;7.540;2024-01-27T01:29:18;29.37;;;26.97;;
15454;SDS011;21057;51.024;7.540;2024-01-27T01:31:45;28.90;;;27.10;;
15454;SDS011;21057;51.024;7.540;2024-01-27T01:34:12;28.63;;;26.77;;
15454;SDS011;21057;51.024;7.540;2024-01-27T01:36:40;30.20;;;28.00;;
15454;SDS011;21057;51.024;7.540;2024-01-27T01:39:06;28.07;;;26.33;;
15454;SDS011;21057;51.024;7.540;2024-01-27T01:41:33;29.77;;;27.47;;
15454;SDS011;21057;51.024;7.540;2024-01-27T01:44:00;29.07;;;26.80;;
15454;SDS011;21057;51.024;7.540;2024-01-27T01:46:27;29.13;;;27.00;;
15454;SDS011;21057;51.024;7.540;2024-01-27T01:48:54;28.03;;;26.33;;
15454;SDS011;21057;51.024;7.540;2024-01-27T01:51:21;28.80;;;26.70;;
15454;SDS011;21057;51.024;7.540;2024-01-27T01:53:50;29.63;;;27.33;;
15454;SDS011;21057;51.024;7.540;2024-01-27T01:56:20;28.50;;;26.60;;
15454;SDS011;21057;51.024;7.540;2024-01-27T01:58:47;27.80;;;26.00;;
15454;SDS011;21057;51.024;7.540;2024-01-27T02:01:15;29.00;;;26.60;;
15454;SDS011;21057;51.024;7.540;2024-01-27T02:03:51;28.47;;;26.63;;
15454;SDS011;21057;51.024;7.540;2024-01-27T02:06:18;28.00;;;26.10;;
15454;SDS011;21057;51.024;7.540;2024-01-27T02:08:45;28.80;;;26.63;;
15454;SDS011;21057;51.024;7.540;2024-01-27T02:11:13;31.10;;;27.73;;
15454;SDS011;21057;51.024;7.540;2024-01-27T02:13:40;29.80;;;27.73;;
15454;SDS011;21057;51.024;7.540;2024-01-27T02:16:07;28.10;;;26.23;;
15454;SDS011;21057;51.024;7.540;2024-01-27T02:18:34;29.83;;;27.10;;
15454;SDS011;21057;51.024;7.540;2024-01-27T02:21:01;28.50;;;26.67;;
15454;SDS011;21057;51.024;7.540;2024-01-27T02:23:28;28.53;;;26.67;;
15454;SDS011;21057;51.024;7.540;2024-01-27T02:25:56;28.07;;;26.00;;
15454;SDS011;21057;51.024;7.540;2024-01-27T02:28:23;27.47;;;25.77;;
15454;SDS011;21057;51.024;7.540;2024-01-27T02:30:50;27.57;;;25.87;;
15454;SDS011;21057;51.024;7.540;2024-01-27T02:33:17;29.37;;;27.07;;
15454;SDS011;21057;51.024;7.540;2024-01-27T02:35:44;30.07;;;26.63;;
15454;SDS011;21057;51.024;7.540;2024-01-27T02:38:11;30.70;;;26.27;;
15454;SDS011;21057;51.024;7.540;2024-01-27T02:40:37;29.33;;;27.43;;
15454;SDS011;21057;51.024;7.540;2024-01-27T02:43:05;29.30;;;27.30;;
15454;SDS011;21057;51.024;7.540;2024-01-27T02:45:32;29.50;;;27.47;;
15454;SDS011;21057;51.024;7.540;2024-01-27T02:47:59;29.10;;;26.67;;
15454;SDS011;21057;51.024;7.540;2024-01-27T02:50:26;28.60;;;26.87;;
15454;SDS011;21057;51.024;7.540;2024-01-27T02:52:53;28.47;;;26.67;;
15454;SDS011;21057;51.024;7.540;2024-01-27T02:55:20;28.63;;;26.83;;
15454;SDS011;21057;51.024;7.540;2024-01-27T02:57:47;30.00;;;27.80;;
15454;SDS011;21057;51.024;7.540;2024-01-27T03:00:15;27.97;;;26.20;;
15454;SDS011;21057;51.024;7.540;2024-01-27T03:02:42;28.47;;;26.43;;
15454;SDS011;21057;51.024;7.540;2024-01-27T03:05:09;29.07;;;27.07;;
15454;SDS011;21057;51.024;7.540;2024-01-27T03:07:39;27.87;;;26.00;;
15454;SDS011;21057;51.024;7.540;2024-01-27T03:10:06;29.50;;;27.30;;
15454;SDS011;21057;51.024;7.540;2024-01-27T03:12:33;29.23;;;27.43;;
15454;SDS011;21057;51.024;7.540;2024-01-27T03:15:00;29.70;;;27.43;;
15454;SDS011;21057;51.024;7.540;2024-01-27T03:17:28;30.17;;;28.37;;
15454;SDS011;21057;51.024;7.540;2024-01-27T03:19:54;29.50;;;27.70;;
15454;SDS011;21057;51.024;7.540;2024-01-27T03:22:21;31.70;;;28.70;;
15454;SDS011;21057;51.024;7.540;2024-01-27T03:24:48;30.50;;;28.47;;
15454;SDS011;21057;51.024;7.540;2024-01-27T03:27:16;29.90;;;27.33;;
15454;SDS011;21057;51.024;7.540;2024-01-27T03:29:43;30.37;;;28.40;;
15454;SDS011;21057;51.024;7.540;2024-01-27T03:32:10;29.90;;;27.90;;
15454;SDS011;21057;51.024;7.540;2024-01-27T03:34:41;29.97;;;28.17;;
15454;SDS011;21057;51.024;7.540;2024-01-27T03:37:10;32.13;;;29.83;;
15454;SDS011;21057;51.024;7.540;2024-01-27T03:39:37;32.23;;;29.83;;
15454;SDS011;21057;51.024;7.540;2024-01-27T03:42:04;32.83;;;30.40;;
15454;SDS011;21057;51.024;7.540;2024-01-27T03:44:30;31.53;;;29.53;;
15454;SDS011;21057;51.024;7.540;2024-01-27T03:46:57;31.93;;;29.67;;
15454;SDS011;21057;51.024;7.540;2024-01-27T03:49:24;31.60;;;29.30;;
15454;SDS011;21057;51.024;7.540;2024-01-27T03:51:52;29.93;;;28.03;;
15454;SDS011;21057;51.024;7.540;2024-01-27T03:54:19;28.67;;;26.97;;
15454;SDS011;21057;51.024;7.540;2024-01-27T03:56:46;30.40;;;28.43;;
15454;SDS011;21057;51.024;7.540;2024-01-27T03:59:12;30.83;;;28.87;;
15454;SDS011;21057;51.024;7.540;2024-01-27T04:01:39;31.80;;;29.77;;
15454;SDS011;21057;51.024;7.540;2024-01-27T04:04:06;32.17;;;30.17;;
15454;SDS011;21057;51.024;7.540;2024-01-27T04:06:35;31.10;;;29.10;;
15454;SDS011;21057;51.024;7.540;2024-01-27T04:09:04;31.53;;;29.43;;
15454;SDS011;21057;51.024;7.540;2024-01-27T04:11:33;31.20;;;29.13;;
15454;SDS011;21057;51.024;7.540;2024-01-27T04:14:01;31.93;;;29.70;;
15454;SDS011;21057;51.024;7.540;2024-01-27T04:16:28;32.60;;;30.50;;
15454;SDS011;21057;51.024;7.540;2024-01-27T04:18:55;31.87;;;29.60;;
15454;SDS011;21057;51.024;7.540;2024-01-27T04:21:22;32.47;;;30.47;;
15454;SDS011;21057;51.024;7.540;2024-01-27T04:23:48;31.63;;;29.60;;
15454;SDS011;21057;51.024;7.540;2024-01-27T04:26:17;30.97;;;28.97;;
15454;SDS011;21057;51.024;7.540;2024-01-27T04:28:43;31.33;;;29.17;;
15454;SDS011;21057;51.024;7.540;2024-01-27T04:31:11;31.40;;;28.93;;
15454;SDS011;21057;51.024;7.540;2024-01-27T04:33:38;30.23;;;28.33;;
15454;SDS011;21057;51.024;7.540;2024-01-27T04:36:05;32.03;;;30.03;;
15454;SDS011;21057;51.024;7.540;2024-01-27T04:38:34;33.73;;;31.43;;
15454;SDS011;21057;51.024;7.540;2024-01-27T04:41:00;32.97;;;30.93;;
15454;SDS011;21057;51.024;7.540;2024-01-27T04:43:30;35.47;;;33.27;;
15454;SDS011;21057;51.024;7.540;2024-01-27T04:45:57;34.83;;;32.47;;
15454;SDS011;21057;51.024;7.540;2024-01-27T04:48:24;35.00;;;32.80;;
15454;SDS011;21057;51.024;7.540;2024-01-27T04:50:51;36.07;;;33.67;;
15454;SDS011;21057;51.024;7.540;2024-01-27T04:53:17;34.30;;;32.23;;
15454;SDS011;21057;51.024;7.540;2024-01-27T04:55:44;36.40;;;34.20;;
15454;SDS011;21057;51.024;7.540;2024-01-27T04:58:11;35.80;;;33.50;;
15454;SDS011;21057;51.024;7.540;2024-01-27T05:00:39;35.40;;;33.10;;
15454;SDS011;21057;51.024;7.540;2024-01-27T05:03:06;36.90;;;34.50;;
15454;SDS011;21057;51.024;7.540;2024-01-27T05:05:40;36.30;;;33.77;;
15454;SDS011;21057;51.024;7.540;2024-01-27T05:08:07;38.40;;;34.63;;
15454;SDS011;21057;51.024;7.540;2024-01-27T05:10:34;34.23;;;31.90;;
15454;SDS011;21057;51.024;7.540;2024-01-27T05:13:01;34.57;;;31.63;;
15454;SDS011;21057;51.024;7.540;2024-01-27T05:15:28;33.67;;;31.47;;
15454;SDS011;21057;51.024;7.540;2024-01-27T05:17:56;35.83;;;32.43;;
15454;SDS011;21057;51.024;7.540;2024-01-27T05:20:23;33.60;;;31.60;;
15454;SDS011;21057;51.024;7.540;2024-01-27T05:22:50;33.67;;;31.57;;
15454;SDS011;21057;51.024;7.540;2024-01-27T05:25:17;32.20;;;29.60;;
15454;SDS011;21057;51.024;7.540;2024-01-27T05:27:43;32.37;;;30.37;;
15454;SDS011;21057;51.024;7.540;2024-01-27T05:30:10;31.73;;;29.80;;
15454;SDS011;21057;51.024;7.540;2024-01-27T05:32:38;31.73;;;29.47;;
15454;SDS011;21057;51.024;7.540;2024-01-27T05:35:07;31.40;;;28.53;;
15454;SDS011;21057;51.024;7.540;2024-01-27T05:37:34;30.07;;;28.17;;
15454;SDS011;21057;51.024;7.540;2024-01-27T05:40:01;31.40;;;29.13;;
15454;SDS011;21057;51.024;7.540;2024-01-27T05:42:28;31.13;;;28.90;;
15454;SDS011;21057;51.024;7.540;2024-01-27T05:44:55;30.87;;;27.70;;
15454;SDS011;21057;51.024;7.540;2024-01-27T05:47:22;29.63;;;27.83;;
15454;SDS011;21057;51.024;7.540;2024-01-27T05:49:48;29.43;;;27.63;;
15454;SDS011;21057;51.024;7.540;2024-01-27T05:52:17;29.87;;;27.97;;
15454;SDS011;21057;51.024;7.540;2024-01-27T05:54:43;31.43;;;29.43;;
15454;SDS011;21057;51.024;7.540;2024-01-27T05:57:10;30.43;;;28.20;;
15454;SDS011;21057;51.024;7.540;2024-01-27T05:59:37;31.80;;;28.90;;
15454;SDS011;21057;51.024;7.540;2024-01-27T06:02:04;32.37;;;29.90;;
15454;SDS011;21057;51.024;7.540;2024-01-27T06:04:30;31.30;;;29.30;;
15454;SDS011;21057;51.024;7.540;2024-01-27T06:06:58;30.97;;;28.97;;
15454;SDS011;21057;51.024;7.540;2024-01-27T06:09:26;30.97;;;28.33;;
15454;SDS011;21057;51.024;7.540;2024-01-27T06:11:53;31.20;;;29.27;;
15454;SDS011;21057;51.024;7.540;2024-01-27T06:14:20;35.07;;;30.83;;
15454;SDS011;21057;51.024;7.540;2024-01-27T06:16:48;32.07;;;30.17;;
15454;SDS011;21057;51.024;7.540;2024-01-27T06:19:17;32.17;;;30.07;;
15454;SDS011;21057;51.024;7.540;2024-01-27T06:21:43;32.17;;;30.17;;
15454;SDS011;21057;51.024;7.540;2024-01-27T06:24:10;35.07;;;32.27;;
15454;SDS011;21057;51.024;7.540;2024-01-27T06:26:38;32.87;;;30.87;;
15454;SDS011;21057;51.024;7.540;2024-01-27T06:29:05;30.43;;;28.60;;
15454;SDS011;21057;51.024;7.540;2024-01-27T06:31:32;35.07;;;30.67;;
15454;SDS011;21057;51.024;7.540;2024-01-27T06:33:59;32.13;;;29.93;;
15454;SDS011;21057;51.024;7.540;2024-01-27T06:36:25;34.17;;;31.83;;
15454;SDS011;21057;51.024;7.540;2024-01-27T06:38:52;32.77;;;30.77;;
15454;SDS011;21057;51.024;7.540;2024-01-27T06:41:19;32.73;;;30.30;;
15454;SDS011;21057;51.024;7.540;2024-01-27T06:43:47;33.40;;;31.00;;
15454;SDS011;21057;51.024;7.540;2024-01-27T06:46:14;33.17;;;30.10;;
15454;SDS011;21057;51.024;7.540;2024-01-27T06:48:41;34.03;;;31.10;;
15454;SDS011;21057;51.024;7.540;2024-01-27T06:51:08;31.93;;;29.53;;
15454;SDS011;21057;51.024;7.540;2024-01-27T06:53:35;32.10;;;29.77;;
15454;SDS011;21057;51.024;7.540;2024-01-27T06:56:02;32.33;;;30.23;;
15454;SDS011;21057;51.024;7.540;2024-01-27T06:58:29;34.13;;;31.23;;
15454;SDS011;21057;51.024;7.540;2024-01-27T07:00:57;34.90;;;32.47;;
15454;SDS011;21057;51.024;7.540;2024-01-27T07:03:24;33.73;;;31.07;;
15454;SDS011;21057;51.024;7.540;2024-01-27T07:05:51;34.90;;;31.83;;
15454;SDS011;21057;51.024;7.540;2024-01-27T07:08:17;35.37;;;32.30;;
15454;SDS011;21057;51.024;7.540;2024-01-27T07:10:44;34.47;;;31.67;;
15454;SDS011;21057;51.024;7.540;2024-01-27T07:13:11;32.50;;;30.27;;
15454;SDS011;21057;51.024;7.540;2024-01-27T07:15:38;33.10;;;30.93;;
15454;SDS011;21057;51.024;7.540;2024-01-27T07:18:06;33.00;;;30.70;;
15454;SDS011;21057;51.024;7.540;2024-01-27T07:20:34;33.27;;;31.03;;
15454;SDS011;21057;51.024;7.540;2024-01-27T07:23:01;34.67;;;31.97;;
15454;SDS011;21057;51.024;7.540;2024-01-27T07:25:28;31.80;;;29.57;;
15454;SDS011;21057;51.024;7.540;2024-01-27T07:27:54;34.07;;;31.67;;
15454;SDS011;21057;51.024;7.540;2024-01-27T07:30:21;34.03;;;31.73;;
15454;SDS011;21057;51.024;7.540;2024-01-27T07:32:48;34.83;;;32.43;;
15454;SDS011;21057;51.024;7.540;2024-01-27T07:35:16;35.17;;;32.83;;
15454;SDS011;21057;51.024;7.540;2024-01-27T07:37:43;32.10;;;29.97;;
15454;SDS011;21057;51.024;7.540;2024-01-27T07:40:10;31.47;;;29.47;;
15454;SDS011;21057;51.024;7.540;2024-01-27T07:42:38;34.50;;;31.57;;
15454;SDS011;21057;51.024;7.540;2024-01-27T07:45:05;31.30;;;29.10;;
15454;SDS011;21057;51.024;7.540;2024-01-27T07:47:33;34.13;;;31.43;;
15454;SDS011;21057;51.024;7.540;2024-01-27T07:50:00;33.23;;;31.03;;
15454;SDS011;21057;51.024;7.540;2024-01-27T07:52:28;33.50;;;31.50;;
15454;SDS011;21057;51.024;7.540;2024-01-27T07:54:55;33.97;;;31.87;;
15454;SDS011;21057;51.024;7.540;2024-01-27T07:57:22;36.23;;;33.20;;
15454;SDS011;21057;51.024;7.540;2024-01-27T07:59:49;34.83;;;32.43;;
15454;SDS011;21057;51.024;7.540;2024-01-27T08:02:15;49.50;;;33.17;;
15454;SDS011;21057;51.024;7.540;2024-01-27T08:04:42;35.33;;;32.83;;
15454;SDS011;21057;51.024;7.540;2024-01-27T08:07:09;35.13;;;32.13;;
15454;SDS011;21057;51.024;7.540;2024-01-27T08:09:37;34.37;;;32.13;;
15454;SDS011;21057;51.024;7.540;2024-01-27T08:12:05;36.57;;;33.67;;
15454;SDS011;21057;51.024;7.540;2024-01-27T08:14:32;34.53;;;32.33;;
15454;SDS011;21057;51.024;7.540;2024-01-27T08:17:00;35.73;;;32.80;;
15454;SDS011;21057;51.024;7.540;2024-01-27T08:19:28;34.77;;;32.57;;
15454;SDS011;21057;51.024;7.540;2024-01-27T08:21:55;35.53;;;32.33;;
15454;SDS011;21057;51.024;7.540;2024-01-27T08:24:22;34.47;;;32.20;;
15454;SDS011;21057;51.024;7.540;2024-01-27T08:26:51;33.97;;;31.83;;
15454;SDS011;21057;51.024;7.540;2024-01-27T08:29:17;35.07;;;32.93;;
15454;SDS011;21057;51.024;7.540;2024-01-27T08:31:44;34.87;;;32.17;;
15454;SDS011;21057;51.024;7.540;2024-01-27T08:34:11;36.13;;;33.83;;
15454;SDS011;21057;51.024;7.540;2024-01-27T08:36:39;36.07;;;33.77;;
15454;SDS011;21057;51.024;7.540;2024-01-27T08:39:05;35.63;;;33.33;;
15454;SDS011;21057;51.024;7.540;2024-01-27T08:41:34;37.30;;;34.27;;
15454;SDS011;21057;51.024;7.540;2024-01-27T08:44:02;38.33;;;35.10;;
15454;SDS011;21057;51.024;7.540;2024-01-27T08:46:30;35.20;;;33.00;;
15454;SDS011;21057;51.024;7.540;2024-01-27T08:48:56;37.53;;;34.50;;
15454;SDS011;21057;51.024;7.540;2024-01-27T08:51:23;33.90;;;31.63;;
15454;SDS011;21057;51.024;7.540;2024-01-27T08:53:50;34.07;;;31.57;;
15454;SDS011;21057;51.024;7.540;2024-01-27T08:56:17;35.63;;;32.97;;
15454;SDS011;21057;51.024;7.540;2024-01-27T08:58:44;36.30;;;33.93;;
15454;SDS011;21057;51.024;7.540;2024-01-27T09:01:15;37.00;;;33.87;;
15454;SDS011;21057;51.024;7.540;2024-01-27T09:03:42;35.40;;;33.20;;
15454;SDS011;21057;51.024;7.540;2024-01-27T09:06:09;37.13;;;34.10;;
15454;SDS011;21057;51.024;7.540;2024-01-27T09:08:36;34.53;;;32.40;;
15454;SDS011;21057;51.024;7.540;2024-01-27T09:11:03;33.70;;;31.33;;
15454;SDS011;21057;51.024;7.540;2024-01-27T09:13:30;34.27;;;31.67;;
15454;SDS011;21057;51.024;7.540;2024-01-27T09:15:57;32.03;;;30.03;;
15454;SDS011;21057;51.024;7.540;2024-01-27T09:18:25;35.07;;;31.97;;
15454;SDS011;21057;51.024;7.540;2024-01-27T09:20:52;36.03;;;33.43;;
15454;SDS011;21057;51.024;7.540;2024-01-27T09:23:19;36.30;;;33.67;;
15454;SDS011;21057;51.024;7.540;2024-01-27T09:25:46;35.27;;;33.07;;
15454;SDS011;21057;51.024;7.540;2024-01-27T09:28:12;34.87;;;32.17;;
15454;SDS011;21057;51.024;7.540;2024-01-27T09:30:41;33.60;;;31.20;;
15454;SDS011;21057;51.024;7.540;2024-01-27T09:33:07;34.47;;;32.13;;
15454;SDS011;21057;51.024;7.540;2024-01-27T09:35:36;34.10;;;31.80;;
15454;SDS011;21057;51.024;7.540;2024-01-27T09:38:03;37.07;;;34.23;;
15454;SDS011;21057;51.024;7.540;2024-01-27T09:40:31;35.83;;;33.10;;
15454;SDS011;21057;51.024;7.540;2024-01-27T09:42:58;35.90;;;33.13;;
15454;SDS011;21057;51.024;7.540;2024-01-27T09:45:26;35.60;;;33.23;;
15454;SDS011;21057;51.024;7.540;2024-01-27T09:47:53;35.03;;;32.83;;
15454;SDS011;21057;51.024;7.540;2024-01-27T09:50:24;37.00;;;34.63;;
15454;SDS011;21057;51.024;7.540;2024-01-27T09:52:52;34.60;;;31.87;;
15454;SDS011;21057;51.024;7.540;2024-01-27T09:55:19;36.80;;;34.20;;
15454;SDS011;21057;51.024;7.540;2024-01-27T09:57:46;38.33;;;34.70;;
15454;SDS011;21057;51.024;7.540;2024-01-27T10:00:14;37.17;;;34.47;;
15454;SDS011;21057;51.024;7.540;2024-01-27T10:02:42;34.93;;;32.43;;
15454;SDS011;21057;51.024;7.540;2024-01-27T10:05:11;36.07;;;33.23;;
15454;SDS011;21057;51.024;7.540;2024-01-27T10:07:40;35.87;;;33.47;;
15454;SDS011;21057;51.024;7.540;2024-01-27T10:10:08;34.73;;;32.27;;
15454;SDS011;21057;51.024;7.540;2024-01-27T10:12:36;35.10;;;32.63;;
15454;SDS011;21057;51.024;7.540;2024-01-27T10:15:06;35.70;;;33.00;;
15454;SDS011;21057;51.024;7.540;2024-01-27T10:17:33;36.67;;;33.77;;
15454;SDS011;21057;51.024;7.540;2024-01-27T10:20:03;36.83;;;34.27;;
15454;SDS011;21057;51.024;7.540;2024-01-27T10:22:38;34.97;;;32.53;;
15454;SDS011;21057;51.024;7.540;2024-01-27T10:25:05;35.67;;;33.03;;
15454;SDS011;21057;51.024;7.540;2024-01-27T10:27:35;34.23;;;32.00;;
15454;SDS011;21057;51.024;7.540;2024-01-27T10:30:02;34.40;;;32.00;;
15454;SDS011;21057;51.024;7.540;2024-01-27T10:32:29;35.13;;;32.77;;
15454;SDS011;21057;51.024;7.540;2024-01-27T10:35:02;32.63;;;30.23;;
15454;SDS011;21057;51.024;7.540;2024-01-27T10:37:29;34.07;;;31.73;;
15454;SDS011;21057;51.024;7.540;2024-01-27T10:39:59;34.80;;;32.37;;
15454;SDS011;21057;51.024;7.540;2024-01-27T10:42:28;33.07;;;30.87;;
15454;SDS011;21057;51.024;7.540;2024-01-27T10:44:58;33.53;;;31.23;;
15454;SDS011;21057;51.024;7.540;2024-01-27T10:47:26;32.57;;;29.60;;
15454;SDS011;21057;51.024;7.540;2024-01-27T10:49:54;29.00;;;26.17;;
15454;SDS011;21057;51.024;7.540;2024-01-27T10:52:23;26.77;;;24.70;;
15454;SDS011;21057;51.024;7.540;2024-01-27T10:54:54;27.07;;;24.40;;
15454;SDS011;21057;51.024;7.540;2024-01-27T10:57:25;25.53;;;22.97;;
15454;SDS011;21057;51.024;7.540;2024-01-27T10:59:53;23.13;;;20.73;;
15454;SDS011;21057;51.024;7.540;2024-01-27T11:02:23;22.50;;;21.00;;
15454;SDS011;21057;51.024;7.540;2024-01-27T11:04:50;21.87;;;20.23;;
15454;SDS011;21057;51.024;7.540;2024-01-27T11:07:18;23.03;;;21.53;;
15454;SDS011;21057;51.024;7.540;2024-01-27T11:09:47;22.57;;;20.97;;
15454;SDS011;21057;51.024;7.540;2024-01-27T11:12:16;21.80;;;20.27;;
15454;SDS011;21057;51.024;7.540;2024-01-27T11:14:44;23.27;;;21.47;;
15454;SDS011;21057;51.024;7.540;2024-01-27T11:17:12;22.27;;;20.53;;
15454;SDS011;21057;51.024;7.540;2024-01-27T11:19:40;23.97;;;22.03;;
15454;SDS011;21057;51.024;7.540;2024-01-27T11:22:07;23.73;;;21.83;;
15454;SDS011;21057;51.024;7.540;2024-01-27T11:24:34;27.20;;;24.90;;
15454;SDS011;21057;51.024;7.540;2024-01-27T11:27:04;24.67;;;22.67;;
15454;SDS011;21057;51.024;7.540;2024-01-27T11:29:32;24.07;;;22.47;;
15454;SDS011;21057;51.024;7.540;2024-01-27T11:32:00;24.33;;;22.40;;
15454;SDS011;21057;51.024;7.540;2024-01-27T11:34:28;23.97;;;22.03;;
15454;SDS011;21057;51.024;7.540;2024-01-27T11:37:11;28.97;;;23.70;;
15454;SDS011;21057;51.024;7.540;2024-01-27T11:39:38;24.77;;;22.80;;
15454;SDS011;21057;51.024;7.540;2024-01-27T11:42:05;26.27;;;22.67;;
15454;SDS011;21057;51.024;7.540;2024-01-27T11:44:36;23.47;;;21.67;;
15454;SDS011;21057;51.024;7.540;2024-01-27T11:47:03;23.33;;;21.80;;
15454;SDS011;21057;51.024;7.540;2024-01-27T11:49:31;23.40;;;21.53;;
15454;SDS011;21057;51.024;7.540;2024-01-27T11:51:59;24.83;;;22.23;;
15454;SDS011;21057;51.024;7.540;2024-01-27T11:54:27;23.60;;;22.10;;
15454;SDS011;21057;51.024;7.540;2024-01-27T11:56:54;23.53;;;21.67;;
15454;SDS011;21057;51.024;7.540;2024-01-27T11:59:21;24.20;;;21.47;;
15454;SDS011;21057;51.024;7.540;2024-01-27T12:01:48;23.43;;;21.73;;
15454;SDS011;21057;51.024;7.540;2024-01-27T12:04:15;21.60;;;20.30;;
15454;SDS011;21057;51.024;7.540;2024-01-27T12:06:43;23.50;;;21.33;;
15454;SDS011;21057;51.024;7.540;2024-01-27T12:09:10;23.97;;;22.27;;
15454;SDS011;21057;51.024;7.540;2024-01-27T12:11:39;22.73;;;21.33;;
15454;SDS011;21057;51.024;7.540;2024-01-27T12:14:06;22.67;;;20.90;;
15454;SDS011;21057;51.024;7.540;2024-01-27T12:16:33;23.33;;;21.60;;
15454;SDS011;21057;51.024;7.540;2024-01-27T12:19:00;21.83;;;20.43;;
15454;SDS011;21057;51.024;7.540;2024-01-27T12:21:28;21.53;;;20.23;;
15454;SDS011;21057;51.024;7.540;2024-01-27T12:23:55;21.70;;;20.20;;
15454;SDS011;21057;51.024;7.540;2024-01-27T12:26:23;23.23;;;21.23;;
15454;SDS011;21057;51.024;7.540;2024-01-27T12:28:53;22.60;;;21.10;;
15454;SDS011;21057;51.024;7.540;2024-01-27T12:31:20;21.80;;;20.50;;
15454;SDS011;21057;51.024;7.540;2024-01-27T12:33:49;22.83;;;21.43;;
15454;SDS011;21057;51.024;7.540;2024-01-27T12:36:17;22.03;;;20.50;;
15454;SDS011;21057;51.024;7.540;2024-01-27T12:38:54;22.67;;;20.70;;
15454;SDS011;21057;51.024;7.540;2024-01-27T12:41:23;21.73;;;20.00;;
15454;SDS011;21057;51.024;7.540;2024-01-27T12:43:50;21.27;;;19.97;;
15454;SDS011;21057;51.024;7.540;2024-01-27T12:46:18;21.20;;;19.90;;
15454;SDS011;21057;51.024;7.540;2024-01-27T12:48:45;22.10;;;20.50;;
15454;SDS011;21057;51.024;7.540;2024-01-27T12:51:12;22.40;;;21.00;;
15454;SDS011;21057;51.024;7.540;2024-01-27T12:53:40;22.87;;;20.70;;
15454;SDS011;21057;51.024;7.540;2024-01-27T12:56:09;21.40;;;20.03;;
15454;SDS011;21057;51.024;7.540;2024-01-27T12:58:36;20.70;;;19.50;;
15454;SDS011;21057;51.024;7.540;2024-01-27T13:01:04;22.47;;;20.60;;
15454;SDS011;21057;51.024;7.540;2024-01-27T13:03:32;21.70;;;20.20;;
15454;SDS011;21057;51.024;7.540;2024-01-27T13:05:58;22.73;;;21.10;;
15454;SDS011;21057;51.024;7.540;2024-01-27T13:08:25;21.53;;;20.10;;
15454;SDS011;21057;51.024;7.540;2024-01-27T13:10:52;20.63;;;19.43;;
15454;SDS011;21057;51.024;7.540;2024-01-27T13:13:20;21.07;;;19.80;;
15454;SDS011;21057;51.024;7.540;2024-01-27T13:15:46;21.70;;;19.90;;
15454;SDS011;21057;51.024;7.540;2024-01-27T13:18:15;21.07;;;19.50;;
15454;SDS011;21057;51.024;7.540;2024-01-27T13:20:41;21.73;;;20.00;;
15454;SDS011;21057;51.024;7.540;2024-01-27T13:23:08;22.43;;;20.43;;
15454;SDS011;21057;51.024;7.540;2024-01-27T13:25:35;20.87;;;19.57;;
15454;SDS011;21057;51.024;7.540;2024-01-27T13:28:02;20.67;;;19.43;;
15454;SDS011;21057;51.024;7.540;2024-01-27T13:30:32;20.77;;;19.47;;
15454;SDS011;21057;51.024;7.540;2024-01-27T13:32:59;20.33;;;19.03;;
15454;SDS011;21057;51.024;7.540;2024-01-27T13:35:27;21.80;;;20.37;;
15454;SDS011;21057;51.024;7.540;2024-01-27T13:37:54;21.57;;;20.07;;
15454;SDS011;21057;51.024;7.540;2024-01-27T13:40:20;22.20;;;20.13;;
15454;SDS011;21057;51.024;7.540;2024-01-27T13:42:48;21.47;;;20.00;;
15454;SDS011;21057;51.024;7.540;2024-01-27T13:45:15;22.40;;;20.70;;
15454;SDS011;21057;51.024;7.540;2024-01-27T13:47:41;22.83;;;21.43;;
15454;SDS011;21057;51.024;7.540;2024-01-27T13:50:09;22.70;;;21.20;;
15454;SDS011;21057;51.024;7.540;2024-01-27T13:52:39;21.40;;;19.80;;
15454;SDS011;21057;51.024;7.540;2024-01-27T13:55:06;21.93;;;20.60;;
15454;SDS011;21057;51.024;7.540;2024-01-27T13:57:33;21.00;;;19.40;;
15454;SDS011;21057;51.024;7.540;2024-01-27T14:00:00;21.90;;;20.37;;
15454;SDS011;21057;51.024;7.540;2024-01-27T14:02:27;22.87;;;20.97;;
15454;SDS011;21057;51.024;7.540;2024-01-27T14:04:54;21.90;;;20.37;;
15454;SDS011;21057;51.024;7.540;2024-01-27T14:07:21;21.60;;;19.90;;
15454;SDS011;21057;51.024;7.540;2024-01-27T14:09:49;20.30;;;19.10;;
15454;SDS011;21057;51.024;7.540;2024-01-27T14:12:16;24.13;;;21.87;;
15454;SDS011;21057;51.024;7.540;2024-01-27T14:14:43;26.77;;;24.30;;
15454;SDS011;21057;51.024;7.540;2024-01-27T14:17:10;22.87;;;21.30;;
15454;SDS011;21057;51.024;7.540;2024-01-27T14:19:37;21.40;;;19.93;;
15454;SDS011;21057;51.024;7.540;2024-01-27T14:22:05;21.53;;;20.23;;